sensor_id;sensor_type;location;lat;lon;timestamp;P1;durP1;ratioP1;P2;durP2;ratioP2
49139;SDS011;34959;49.310;8.646;2023-07-20T00:02:12;3.92;;;1.40;;
49139;SDS011;34959;49.310;8.646;2023-07-20T00:04:38;3.95;;;1.50;;
49139;SDS011;34959;49.310;8.646;2023-07-20T00:07:04;2.40;;;1.55;;
49139;SDS011;34959;49.310;8.646;2023-07-20T00:09:29;3.42;;;1.63;;
49139;SDS011;34959;49.310;8.646;2023-07-20T00:11:55;1.95;;;1.38;;
49139;SDS011;34959;49.310;8.646;2023-07-20T00:14:20;2.88;;;1.40;;
49139;SDS011;34959;49.310;8.646;2023-07-20T00:16:46;3.40;;;1.52;;
49139;SDS011;34959;49.310;8.646;2023-07-20T00:19:14;2.00;;;1.25;;
49139;SDS011;34959;49.310;8.646;2023-07-20T00:21:39;2.50;;;1.50;;
49139;SDS011;34959;49.310;8.646;2023-07-20T00:24:06;1.80;;;1.30;;
49139;SDS011;34959;49.310;8.646;2023-07-20T00:26:31;2.55;;;1.50;;
49139;SDS011;34959;49.310;8.646;2023-07-20T00:28:57;1.90;;;1.38;;
49139;SDS011;34959;49.310;8.646;2023-07-20T00:31:22;3.58;;;1.40;;
49139;SDS011;34959;49.310;8.646;2023-07-20T00:33:47;2.50;;;1.25;;
49139;SDS011;34959;49.310;8.646;2023-07-20T00:36:13;2.72;;;1.40;;
49139;SDS011;34959;49.310;8.646;2023-07-20T00:38:39;3.50;;;1.45;;
49139;SDS011;34959;49.310;8.646;2023-07-20T00:41:04;2.95;;;1.50;;
49139;SDS011;34959;49.310;8.646;2023-07-20T00:43:30;4.00;;;1.77;;
49139;SDS011;34959;49.310;8.646;2023-07-20T00:45:55;4.50;;;1.60;;
49139;SDS011;34959;49.310;8.646;2023-07-20T00:48:21;3.70;;;1.35;;
49139;SDS011;34959;49.310;8.646;2023-07-20T00:50:46;2.50;;;1.50;;
49139;SDS011;34959;49.310;8.646;2023-07-20T00:53:13;4.07;;;1.50;;
49139;SDS011;34959;49.310;8.646;2023-07-20T00:55:39;2.80;;;1.65;;
49139;SDS011;34959;49.310;8.646;2023-07-20T00:58:04;3.50;;;1.40;;
49139;SDS011;34959;49.310;8.646;2023-07-20T01:00:30;2.80;;;1.33;;
49139;SDS011;34959;49.310;8.646;2023-07-20T01:02:55;4.15;;;1.67;;
49139;SDS011;34959;49.310;8.646;2023-07-20T01:05:21;4.95;;;1.73;;
49139;SDS011;34959;49.310;8.646;2023-07-20T01:07:55;3.05;;;1.60;;
49139;SDS011;34959;49.310;8.646;2023-07-20T01:10:48;4.45;;;1.67;;
49139;SDS011;34959;49.310;8.646;2023-07-20T01:13:17;3.17;;;1.30;;
49139;SDS011;34959;49.310;8.646;2023-07-20T01:15:48;4.88;;;1.33;;
49139;SDS011;34959;49.310;8.646;2023-07-20T01:20:40;4.07;;;1.60;;
49139;SDS011;34959;49.310;8.646;2023-07-20T01:29:13;3.30;;;1.48;;
49139;SDS011;34959;49.310;8.646;2023-07-20T01:31:43;2.95;;;1.45;;
49139;SDS011;34959;49.310;8.646;2023-07-20T01:34:09;2.65;;;1.58;;
49139;SDS011;34959;49.310;8.646;2023-07-20T01:36:37;3.10;;;1.50;;
49139;SDS011;34959;49.310;8.646;2023-07-20T01:39:03;3.10;;;1.63;;
49139;SDS011;34959;49.310;8.646;2023-07-20T01:41:29;3.17;;;1.63;;
49139;SDS011;34959;49.310;8.646;2023-07-20T01:43:58;2.50;;;1.42;;
49139;SDS011;34959;49.310;8.646;2023-07-20T01:46:27;3.13;;;1.42;;
49139;SDS011;34959;49.310;8.646;2023-07-20T01:48:52;2.90;;;1.42;;
49139;SDS011;34959;49.310;8.646;2023-07-20T01:51:19;2.67;;;1.42;;
49139;SDS011;34959;49.310;8.646;2023-07-20T01:53:44;3.00;;;1.30;;
49139;SDS011;34959;49.310;8.646;2023-07-20T01:56:10;3.63;;;1.55;;
49139;SDS011;34959;49.310;8.646;2023-07-20T01:58:37;4.53;;;1.80;;
49139;SDS011;34959;49.310;8.646;2023-07-20T02:01:02;4.07;;;1.40;;
49139;SDS011;34959;49.310;8.646;2023-07-20T02:03:28;3.85;;;1.48;;
49139;SDS011;34959;49.310;8.646;2023-07-20T02:05:53;2.42;;;1.40;;
49139;SDS011;34959;49.310;8.646;2023-07-20T02:08:18;3.10;;;1.50;;
49139;SDS011;34959;49.310;8.646;2023-07-20T02:10:47;4.72;;;1.30;;
49139;SDS011;34959;49.310;8.646;2023-07-20T02:13:13;2.28;;;1.63;;
49139;SDS011;34959;49.310;8.646;2023-07-20T02:15:39;2.28;;;1.10;;
49139;SDS011;34959;49.310;8.646;2023-07-20T02:18:05;1.95;;;1.40;;
49139;SDS011;34959;49.310;8.646;2023-07-20T02:20:31;3.17;;;1.55;;
49139;SDS011;34959;49.310;8.646;2023-07-20T02:22:56;2.90;;;1.40;;
49139;SDS011;34959;49.310;8.646;2023-07-20T02:25:21;1.63;;;1.20;;
49139;SDS011;34959;49.310;8.646;2023-07-20T02:27:47;4.20;;;1.20;;
49139;SDS011;34959;49.310;8.646;2023-07-20T02:30:12;2.30;;;1.25;;
49139;SDS011;34959;49.310;8.646;2023-07-20T02:32:38;1.75;;;1.30;;
49139;SDS011;34959;49.310;8.646;2023-07-20T02:35:04;2.45;;;1.25;;
49139;SDS011;34959;49.310;8.646;2023-07-20T02:37:30;4.22;;;1.50;;
49139;SDS011;34959;49.310;8.646;2023-07-20T02:39:55;3.42;;;1.20;;
49139;SDS011;34959;49.310;8.646;2023-07-20T02:42:21;2.55;;;1.35;;
49139;SDS011;34959;49.310;8.646;2023-07-20T02:44:48;3.20;;;1.42;;
49139;SDS011;34959;49.310;8.646;2023-07-20T02:47:13;1.70;;;1.20;;
49139;SDS011;34959;49.310;8.646;2023-07-20T02:49:39;1.95;;;1.13;;
49139;SDS011;34959;49.310;8.646;2023-07-20T02:52:04;2.78;;;1.52;;
49139;SDS011;34959;49.310;8.646;2023-07-20T02:54:30;1.95;;;1.20;;
49139;SDS011;34959;49.310;8.646;2023-07-20T02:56:55;2.83;;;1.60;;
49139;SDS011;34959;49.310;8.646;2023-07-20T02:59:21;2.58;;;1.60;;
49139;SDS011;34959;49.310;8.646;2023-07-20T03:01:46;2.80;;;1.25;;
49139;SDS011;34959;49.310;8.646;2023-07-20T03:04:12;3.08;;;1.60;;
49139;SDS011;34959;49.310;8.646;2023-07-20T03:06:37;3.72;;;1.30;;
49139;SDS011;34959;49.310;8.646;2023-07-20T03:09:03;3.78;;;1.33;;
49139;SDS011;34959;49.310;8.646;2023-07-20T03:11:29;4.03;;;1.58;;
49139;SDS011;34959;49.310;8.646;2023-07-20T03:13:54;2.15;;;1.40;;
49139;SDS011;34959;49.310;8.646;2023-07-20T03:16:20;3.90;;;1.42;;
49139;SDS011;34959;49.310;8.646;2023-07-20T03:18:45;2.05;;;1.35;;
49139;SDS011;34959;49.310;8.646;2023-07-20T03:21:11;2.42;;;1.42;;
49139;SDS011;34959;49.310;8.646;2023-07-20T03:23:37;3.95;;;1.58;;
49139;SDS011;34959;49.310;8.646;2023-07-20T03:26:03;3.42;;;1.80;;
49139;SDS011;34959;49.310;8.646;2023-07-20T03:28:28;3.33;;;1.50;;
49139;SDS011;34959;49.310;8.646;2023-07-20T03:30:57;2.85;;;1.42;;
49139;SDS011;34959;49.310;8.646;2023-07-20T03:33:26;3.03;;;1.60;;
49139;SDS011;34959;49.310;8.646;2023-07-20T03:35:53;2.92;;;1.33;;
49139;SDS011;34959;49.310;8.646;2023-07-20T03:38:19;5.15;;;1.80;;
49139;SDS011;34959;49.310;8.646;2023-07-20T03:40:51;5.03;;;1.48;;
49139;SDS011;34959;49.310;8.646;2023-07-20T03:43:17;2.80;;;1.50;;
49139;SDS011;34959;49.310;8.646;2023-07-20T03:45:43;2.72;;;1.63;;
49139;SDS011;34959;49.310;8.646;2023-07-20T03:48:08;2.80;;;1.70;;
49139;SDS011;34959;49.310;8.646;2023-07-20T03:50:34;2.67;;;1.55;;
49139;SDS011;34959;49.310;8.646;2023-07-20T03:52:59;3.10;;;1.48;;
49139;SDS011;34959;49.310;8.646;2023-07-20T03:55:25;2.38;;;1.42;;
49139;SDS011;34959;49.310;8.646;2023-07-20T03:57:50;2.30;;;1.50;;
49139;SDS011;34959;49.310;8.646;2023-07-20T04:00:16;3.17;;;1.50;;
49139;SDS011;34959;49.310;8.646;2023-07-20T04:02:42;2.10;;;1.50;;
49139;SDS011;34959;49.310;8.646;2023-07-20T04:05:08;3.65;;;1.35;;
49139;SDS011;34959;49.310;8.646;2023-07-20T04:07:33;3.47;;;1.77;;
49139;SDS011;34959;49.310;8.646;2023-07-20T04:09:59;2.63;;;1.70;;
49139;SDS011;34959;49.310;8.646;2023-07-20T04:12:24;3.63;;;1.67;;
49139;SDS011;34959;49.310;8.646;2023-07-20T04:14:49;2.22;;;1.50;;
49139;SDS011;34959;49.310;8.646;2023-07-20T04:17:15;3.92;;;2.10;;
49139;SDS011;34959;49.310;8.646;2023-07-20T04:19:40;2.85;;;1.45;;
49139;SDS011;34959;49.310;8.646;2023-07-20T04:22:06;3.28;;;1.80;;
49139;SDS011;34959;49.310;8.646;2023-07-20T04:24:31;2.92;;;1.70;;
49139;SDS011;34959;49.310;8.646;2023-07-20T04:26:56;4.35;;;1.70;;
49139;SDS011;34959;49.310;8.646;2023-07-20T04:29:22;3.13;;;1.60;;
49139;SDS011;34959;49.310;8.646;2023-07-20T04:31:47;3.63;;;1.90;;
49139;SDS011;34959;49.310;8.646;2023-07-20T04:34:13;5.32;;;1.40;;
49139;SDS011;34959;49.310;8.646;2023-07-20T04:36:41;4.72;;;2.00;;
49139;SDS011;34959;49.310;8.646;2023-07-20T04:39:06;3.70;;;1.58;;
49139;SDS011;34959;49.310;8.646;2023-07-20T04:41:33;5.75;;;1.67;;
49139;SDS011;34959;49.310;8.646;2023-07-20T04:43:59;5.40;;;1.50;;
49139;SDS011;34959;49.310;8.646;2023-07-20T04:46:26;4.22;;;1.60;;
49139;SDS011;34959;49.310;8.646;2023-07-20T04:48:52;2.95;;;1.50;;
49139;SDS011;34959;49.310;8.646;2023-07-20T04:51:17;3.85;;;1.60;;
49139;SDS011;34959;49.310;8.646;2023-07-20T04:53:46;3.47;;;1.63;;
49139;SDS011;34959;49.310;8.646;2023-07-20T04:56:12;4.53;;;1.92;;
49139;SDS011;34959;49.310;8.646;2023-07-20T04:58:37;6.95;;;1.70;;
49139;SDS011;34959;49.310;8.646;2023-07-20T05:01:02;3.85;;;1.60;;
49139;SDS011;34959;49.310;8.646;2023-07-20T05:03:28;4.53;;;1.58;;
49139;SDS011;34959;49.310;8.646;2023-07-20T05:05:54;6.03;;;1.67;;
49139;SDS011;34959;49.310;8.646;2023-07-20T05:08:20;3.40;;;1.70;;
49139;SDS011;34959;49.310;8.646;2023-07-20T05:10:47;3.58;;;1.33;;
49139;SDS011;34959;49.310;8.646;2023-07-20T05:13:13;2.83;;;1.40;;
49139;SDS011;34959;49.310;8.646;2023-07-20T05:15:38;2.63;;;1.83;;
49139;SDS011;34959;49.310;8.646;2023-07-20T05:18:04;2.83;;;1.88;;
49139;SDS011;34959;49.310;8.646;2023-07-20T05:20:29;4.07;;;1.52;;
49139;SDS011;34959;49.310;8.646;2023-07-20T05:22:56;3.33;;;1.60;;
49139;SDS011;34959;49.310;8.646;2023-07-20T05:25:22;2.95;;;1.65;;
49139;SDS011;34959;49.310;8.646;2023-07-20T05:27:47;2.50;;;1.30;;
49139;SDS011;34959;49.310;8.646;2023-07-20T05:30:13;2.90;;;1.42;;
49139;SDS011;34959;49.310;8.646;2023-07-20T05:32:39;3.45;;;1.52;;
49139;SDS011;34959;49.310;8.646;2023-07-20T05:35:04;2.22;;;1.38;;
49139;SDS011;34959;49.310;8.646;2023-07-20T05:37:30;3.10;;;1.27;;
49139;SDS011;34959;49.310;8.646;2023-07-20T05:39:55;2.47;;;1.33;;
49139;SDS011;34959;49.310;8.646;2023-07-20T05:42:21;4.13;;;1.75;;
49139;SDS011;34959;49.310;8.646;2023-07-20T05:44:46;3.20;;;1.42;;
49139;SDS011;34959;49.310;8.646;2023-07-20T05:47:17;3.13;;;1.37;;
49139;SDS011;34959;49.310;8.646;2023-07-20T05:49:43;3.60;;;1.33;;
49139;SDS011;34959;49.310;8.646;2023-07-20T05:52:08;6.93;;;2.03;;
49139;SDS011;34959;49.310;8.646;2023-07-20T05:54:34;2.65;;;1.50;;
49139;SDS011;34959;49.310;8.646;2023-07-20T05:56:59;3.25;;;1.65;;
49139;SDS011;34959;49.310;8.646;2023-07-20T05:59:24;8.00;;;2.22;;
49139;SDS011;34959;49.310;8.646;2023-07-20T06:01:50;5.03;;;2.03;;
49139;SDS011;34959;49.310;8.646;2023-07-20T06:04:15;3.78;;;1.50;;
49139;SDS011;34959;49.310;8.646;2023-07-20T06:06:41;3.55;;;1.70;;
49139;SDS011;34959;49.310;8.646;2023-07-20T06:09:06;3.40;;;1.65;;
49139;SDS011;34959;49.310;8.646;2023-07-20T06:11:36;4.13;;;1.70;;
49139;SDS011;34959;49.310;8.646;2023-07-20T06:14:02;4.35;;;1.80;;
49139;SDS011;34959;49.310;8.646;2023-07-20T06:16:28;4.93;;;1.88;;
49139;SDS011;34959;49.310;8.646;2023-07-20T06:18:53;8.30;;;1.90;;
49139;SDS011;34959;49.310;8.646;2023-07-20T06:21:18;4.43;;;1.80;;
49139;SDS011;34959;49.310;8.646;2023-07-20T06:23:44;7.00;;;1.92;;
49139;SDS011;34959;49.310;8.646;2023-07-20T06:26:11;7.13;;;2.05;;
49139;SDS011;34959;49.310;8.646;2023-07-20T06:28:36;6.75;;;2.10;;
49139;SDS011;34959;49.310;8.646;2023-07-20T06:31:02;3.33;;;1.70;;
49139;SDS011;34959;49.310;8.646;2023-07-20T06:33:28;5.07;;;2.15;;
49139;SDS011;34959;49.310;8.646;2023-07-20T06:35:54;5.80;;;1.65;;
49139;SDS011;34959;49.310;8.646;2023-07-20T06:38:19;5.57;;;1.92;;
49139;SDS011;34959;49.310;8.646;2023-07-20T06:40:48;4.07;;;1.75;;
49139;SDS011;34959;49.310;8.646;2023-07-20T06:43:14;4.15;;;1.98;;
49139;SDS011;34959;49.310;8.646;2023-07-20T06:45:40;4.82;;;1.88;;
49139;SDS011;34959;49.310;8.646;2023-07-20T06:48:06;6.93;;;1.90;;
49139;SDS011;34959;49.310;8.646;2023-07-20T06:50:31;2.78;;;1.75;;
49139;SDS011;34959;49.310;8.646;2023-07-20T06:52:58;3.13;;;1.80;;
49139;SDS011;34959;49.310;8.646;2023-07-20T06:55:25;4.95;;;1.92;;
49139;SDS011;34959;49.310;8.646;2023-07-20T06:57:50;4.80;;;2.05;;
49139;SDS011;34959;49.310;8.646;2023-07-20T07:00:16;3.90;;;2.17;;
49139;SDS011;34959;49.310;8.646;2023-07-20T07:02:42;3.30;;;2.00;;
49139;SDS011;34959;49.310;8.646;2023-07-20T07:05:07;4.40;;;1.98;;
49139;SDS011;34959;49.310;8.646;2023-07-20T07:07:33;4.47;;;2.00;;
49139;SDS011;34959;49.310;8.646;2023-07-20T07:09:58;4.50;;;2.00;;
49139;SDS011;34959;49.310;8.646;2023-07-20T07:12:24;5.00;;;1.80;;
49139;SDS011;34959;49.310;8.646;2023-07-20T07:14:50;3.50;;;2.00;;
49139;SDS011;34959;49.310;8.646;2023-07-20T07:17:15;3.25;;;1.70;;
49139;SDS011;34959;49.310;8.646;2023-07-20T07:19:41;4.30;;;1.70;;
49139;SDS011;34959;49.310;8.646;2023-07-20T07:22:07;3.85;;;1.98;;
49139;SDS011;34959;49.310;8.646;2023-07-20T07:24:32;4.15;;;1.80;;
49139;SDS011;34959;49.310;8.646;2023-07-20T07:27:02;6.25;;;2.83;;
49139;SDS011;34959;49.310;8.646;2023-07-20T07:29:28;5.15;;;2.00;;
49139;SDS011;34959;49.310;8.646;2023-07-20T07:31:54;5.10;;;2.90;;
49139;SDS011;34959;49.310;8.646;2023-07-20T07:34:19;4.97;;;2.50;;
49139;SDS011;34959;49.310;8.646;2023-07-20T07:36:45;3.97;;;2.13;;
49139;SDS011;34959;49.310;8.646;2023-07-20T07:39:10;5.78;;;2.22;;
49139;SDS011;34959;49.310;8.646;2023-07-20T07:41:36;3.97;;;2.10;;
49139;SDS011;34959;49.310;8.646;2023-07-20T07:44:01;3.13;;;1.88;;
49139;SDS011;34959;49.310;8.646;2023-07-20T07:46:27;2.78;;;1.90;;
49139;SDS011;34959;49.310;8.646;2023-07-20T07:48:52;4.57;;;1.80;;
49139;SDS011;34959;49.310;8.646;2023-07-20T07:51:18;3.75;;;1.90;;
49139;SDS011;34959;49.310;8.646;2023-07-20T07:53:44;5.07;;;1.83;;
49139;SDS011;34959;49.310;8.646;2023-07-20T07:56:10;3.08;;;1.88;;
49139;SDS011;34959;49.310;8.646;2023-07-20T07:58:36;2.97;;;1.85;;
49139;SDS011;34959;49.310;8.646;2023-07-20T08:01:02;2.95;;;1.90;;
49139;SDS011;34959;49.310;8.646;2023-07-20T08:03:27;2.40;;;1.50;;
49139;SDS011;34959;49.310;8.646;2023-07-20T08:05:56;3.97;;;1.70;;
49139;SDS011;34959;49.310;8.646;2023-07-20T08:08:22;3.60;;;1.48;;
49139;SDS011;34959;49.310;8.646;2023-07-20T08:10:47;3.88;;;1.80;;
49139;SDS011;34959;49.310;8.646;2023-07-20T08:13:13;5.68;;;2.05;;
49139;SDS011;34959;49.310;8.646;2023-07-20T08:15:39;3.95;;;1.95;;
49139;SDS011;34959;49.310;8.646;2023-07-20T08:18:05;4.75;;;1.98;;
49139;SDS011;34959;49.310;8.646;2023-07-20T08:20:31;3.47;;;1.58;;
49139;SDS011;34959;49.310;8.646;2023-07-20T08:22:57;3.42;;;1.70;;
49139;SDS011;34959;49.310;8.646;2023-07-20T08:25:24;3.33;;;2.00;;
49139;SDS011;34959;49.310;8.646;2023-07-20T08:27:50;4.63;;;2.08;;
49139;SDS011;34959;49.310;8.646;2023-07-20T08:30:16;3.03;;;1.50;;
49139;SDS011;34959;49.310;8.646;2023-07-20T08:32:42;3.80;;;1.50;;
49139;SDS011;34959;49.310;8.646;2023-07-20T08:35:07;3.08;;;1.80;;
49139;SDS011;34959;49.310;8.646;2023-07-20T08:37:33;2.80;;;1.67;;
49139;SDS011;34959;49.310;8.646;2023-07-20T08:39:59;2.70;;;1.50;;
49139;SDS011;34959;49.310;8.646;2023-07-20T08:42:24;3.63;;;1.58;;
49139;SDS011;34959;49.310;8.646;2023-07-20T08:44:50;2.42;;;1.63;;
49139;SDS011;34959;49.310;8.646;2023-07-20T08:47:17;3.22;;;1.50;;
49139;SDS011;34959;49.310;8.646;2023-07-20T08:49:44;3.25;;;1.60;;
49139;SDS011;34959;49.310;8.646;2023-07-20T08:52:13;3.92;;;1.83;;
49139;SDS011;34959;49.310;8.646;2023-07-20T08:54:38;1.92;;;1.40;;
49139;SDS011;34959;49.310;8.646;2023-07-20T08:57:04;4.13;;;1.40;;
49139;SDS011;34959;49.310;8.646;2023-07-20T08:59:31;3.13;;;1.50;;
49139;SDS011;34959;49.310;8.646;2023-07-20T09:01:58;2.60;;;1.75;;
49139;SDS011;34959;49.310;8.646;2023-07-20T09:04:23;3.83;;;1.50;;
49139;SDS011;34959;49.310;8.646;2023-07-20T09:06:49;2.63;;;1.38;;
49139;SDS011;34959;49.310;8.646;2023-07-20T09:09:15;3.60;;;1.33;;
49139;SDS011;34959;49.310;8.646;2023-07-20T09:11:41;5.07;;;1.60;;
49139;SDS011;34959;49.310;8.646;2023-07-20T09:14:07;3.15;;;1.55;;
49139;SDS011;34959;49.310;8.646;2023-07-20T09:16:46;2.90;;;1.40;;
49139;SDS011;34959;49.310;8.646;2023-07-20T09:19:15;2.90;;;1.45;;
49139;SDS011;34959;49.310;8.646;2023-07-20T09:21:41;3.08;;;1.48;;
49139;SDS011;34959;49.310;8.646;2023-07-20T09:24:09;3.20;;;1.65;;
49139;SDS011;34959;49.310;8.646;2023-07-20T09:26:39;3.47;;;1.60;;
49139;SDS011;34959;49.310;8.646;2023-07-20T09:29:07;3.63;;;1.70;;
49139;SDS011;34959;49.310;8.646;2023-07-20T09:31:34;3.90;;;1.40;;
49139;SDS011;34959;49.310;8.646;2023-07-20T09:33:59;3.33;;;1.48;;
49139;SDS011;34959;49.310;8.646;2023-07-20T09:36:26;3.38;;;1.70;;
49139;SDS011;34959;49.310;8.646;2023-07-20T09:38:52;3.95;;;1.40;;
49139;SDS011;34959;49.310;8.646;2023-07-20T09:41:18;2.75;;;1.30;;
49139;SDS011;34959;49.310;8.646;2023-07-20T09:43:43;2.28;;;1.35;;
49139;SDS011;34959;49.310;8.646;2023-07-20T09:46:09;3.03;;;1.50;;
49139;SDS011;34959;49.310;8.646;2023-07-20T09:48:34;2.47;;;1.30;;
49139;SDS011;34959;49.310;8.646;2023-07-20T09:51:00;3.05;;;1.40;;
49139;SDS011;34959;49.310;8.646;2023-07-20T09:53:26;2.67;;;1.40;;
49139;SDS011;34959;49.310;8.646;2023-07-20T09:55:52;3.42;;;1.50;;
49139;SDS011;34959;49.310;8.646;2023-07-20T09:58:18;2.38;;;1.30;;
49139;SDS011;34959;49.310;8.646;2023-07-20T10:00:44;2.20;;;1.40;;
49139;SDS011;34959;49.310;8.646;2023-07-20T10:03:19;1.85;;;1.30;;
49139;SDS011;34959;49.310;8.646;2023-07-20T10:05:52;2.35;;;1.45;;
49139;SDS011;34959;49.310;8.646;2023-07-20T10:08:20;2.80;;;1.45;;
49139;SDS011;34959;49.310;8.646;2023-07-20T10:10:49;3.13;;;1.50;;
49139;SDS011;34959;49.310;8.646;2023-07-20T10:13:18;3.42;;;1.30;;
49139;SDS011;34959;49.310;8.646;2023-07-20T10:18:28;3.33;;;1.13;;
49139;SDS011;34959;49.310;8.646;2023-07-20T10:20:55;3.03;;;1.33;;
49139;SDS011;34959;49.310;8.646;2023-07-20T10:23:22;3.05;;;1.30;;
49139;SDS011;34959;49.310;8.646;2023-07-20T10:25:48;2.65;;;1.27;;
49139;SDS011;34959;49.310;8.646;2023-07-20T10:28:15;3.28;;;1.50;;
49139;SDS011;34959;49.310;8.646;2023-07-20T10:30:40;3.80;;;1.50;;
49139;SDS011;34959;49.310;8.646;2023-07-20T10:33:06;3.00;;;1.58;;
49139;SDS011;34959;49.310;8.646;2023-07-20T10:38:37;2.00;;;1.20;;
49139;SDS011;34959;49.310;8.646;2023-07-20T10:41:16;3.15;;;1.30;;
49139;SDS011;34959;49.310;8.646;2023-07-20T10:43:43;3.28;;;1.65;;
49139;SDS011;34959;49.310;8.646;2023-07-20T10:46:10;1.88;;;1.23;;
49139;SDS011;34959;49.310;8.646;2023-07-20T10:48:39;1.60;;;1.13;;
49139;SDS011;34959;49.310;8.646;2023-07-20T10:51:28;2.70;;;1.20;;
49139;SDS011;34959;49.310;8.646;2023-07-20T10:53:57;2.08;;;1.50;;
49139;SDS011;34959;49.310;8.646;2023-07-20T10:56:25;2.28;;;1.40;;
49139;SDS011;34959;49.310;8.646;2023-07-20T10:58:59;2.35;;;1.40;;
49139;SDS011;34959;49.310;8.646;2023-07-20T11:01:28;3.05;;;1.63;;
49139;SDS011;34959;49.310;8.646;2023-07-20T11:03:58;3.17;;;1.48;;
49139;SDS011;34959;49.310;8.646;2023-07-20T11:08:55;1.50;;;1.20;;
49139;SDS011;34959;49.310;8.646;2023-07-20T11:14:01;2.08;;;1.10;;
49139;SDS011;34959;49.310;8.646;2023-07-20T11:21:50;2.85;;;1.50;;
49139;SDS011;34959;49.310;8.646;2023-07-20T11:24:17;2.50;;;1.30;;
49139;SDS011;34959;49.310;8.646;2023-07-20T11:26:50;2.45;;;1.33;;
49139;SDS011;34959;49.310;8.646;2023-07-20T11:29:18;2.47;;;1.23;;
49139;SDS011;34959;49.310;8.646;2023-07-20T11:31:45;2.28;;;1.27;;
49139;SDS011;34959;49.310;8.646;2023-07-20T11:34:12;4.50;;;1.48;;
49139;SDS011;34959;49.310;8.646;2023-07-20T11:36:46;2.05;;;1.10;;
49139;SDS011;34959;49.310;8.646;2023-07-20T11:39:13;1.80;;;1.30;;
49139;SDS011;34959;49.310;8.646;2023-07-20T11:41:44;2.30;;;1.33;;
49139;SDS011;34959;49.310;8.646;2023-07-20T11:44:13;2.00;;;1.20;;
49139;SDS011;34959;49.310;8.646;2023-07-20T11:46:40;2.88;;;1.10;;
49139;SDS011;34959;49.310;8.646;2023-07-20T11:49:06;1.73;;;1.10;;
49139;SDS011;34959;49.310;8.646;2023-07-20T11:51:31;2.17;;;1.20;;
49139;SDS011;34959;49.310;8.646;2023-07-20T11:53:57;2.65;;;1.10;;
49139;SDS011;34959;49.310;8.646;2023-07-20T11:56:24;1.67;;;1.10;;
49139;SDS011;34959;49.310;8.646;2023-07-20T11:58:50;2.30;;;1.30;;
49139;SDS011;34959;49.310;8.646;2023-07-20T12:01:15;2.90;;;1.05;;
49139;SDS011;34959;49.310;8.646;2023-07-20T12:03:42;2.42;;;1.20;;
49139;SDS011;34959;49.310;8.646;2023-07-20T12:06:09;1.63;;;1.17;;
49139;SDS011;34959;49.310;8.646;2023-07-20T12:08:34;2.95;;;1.30;;
49139;SDS011;34959;49.310;8.646;2023-07-20T12:11:00;2.58;;;1.20;;
49139;SDS011;34959;49.310;8.646;2023-07-20T12:13:38;3.72;;;1.40;;
49139;SDS011;34959;49.310;8.646;2023-07-20T12:16:13;9.02;;;1.40;;
49139;SDS011;34959;49.310;8.646;2023-07-20T12:18:43;1.77;;;1.17;;
49139;SDS011;34959;49.310;8.646;2023-07-20T12:21:09;2.70;;;1.38;;
49139;SDS011;34959;49.310;8.646;2023-07-20T12:23:35;1.75;;;1.10;;
49139;SDS011;34959;49.310;8.646;2023-07-20T12:26:02;2.47;;;1.42;;
49139;SDS011;34959;49.310;8.646;2023-07-20T12:28:29;1.75;;;1.20;;
49139;SDS011;34959;49.310;8.646;2023-07-20T12:30:54;3.38;;;1.20;;
49139;SDS011;34959;49.310;8.646;2023-07-20T12:33:23;2.20;;;1.23;;
49139;SDS011;34959;49.310;8.646;2023-07-20T12:35:49;2.70;;;1.10;;
49139;SDS011;34959;49.310;8.646;2023-07-20T12:38:15;2.45;;;1.17;;
49139;SDS011;34959;49.310;8.646;2023-07-20T12:40:41;1.77;;;1.10;;
49139;SDS011;34959;49.310;8.646;2023-07-20T12:43:06;1.70;;;1.08;;
49139;SDS011;34959;49.310;8.646;2023-07-20T12:45:32;2.13;;;1.25;;
49139;SDS011;34959;49.310;8.646;2023-07-20T12:47:57;1.92;;;1.00;;
49139;SDS011;34959;49.310;8.646;2023-07-20T12:50:23;2.08;;;1.08;;
49139;SDS011;34959;49.310;8.646;2023-07-20T12:52:48;2.45;;;1.10;;
49139;SDS011;34959;49.310;8.646;2023-07-20T12:55:14;1.50;;;0.93;;
49139;SDS011;34959;49.310;8.646;2023-07-20T12:57:40;2.05;;;1.10;;
49139;SDS011;34959;49.310;8.646;2023-07-20T13:00:06;3.30;;;1.30;;
49139;SDS011;34959;49.310;8.646;2023-07-20T13:02:34;2.03;;;1.15;;
49139;SDS011;34959;49.310;8.646;2023-07-20T13:05:00;1.40;;;0.93;;
49139;SDS011;34959;49.310;8.646;2023-07-20T13:07:29;2.20;;;1.10;;
49139;SDS011;34959;49.310;8.646;2023-07-20T13:10:01;1.40;;;0.95;;
49139;SDS011;34959;49.310;8.646;2023-07-20T13:12:28;1.80;;;1.13;;
49139;SDS011;34959;49.310;8.646;2023-07-20T13:14:54;2.00;;;1.00;;
49139;SDS011;34959;49.310;8.646;2023-07-20T13:17:20;1.70;;;1.02;;
49139;SDS011;34959;49.310;8.646;2023-07-20T13:19:46;2.03;;;0.90;;
49139;SDS011;34959;49.310;8.646;2023-07-20T13:22:12;1.75;;;0.98;;
49139;SDS011;34959;49.310;8.646;2023-07-20T13:24:41;1.75;;;1.00;;
49139;SDS011;34959;49.310;8.646;2023-07-20T13:27:07;2.20;;;1.10;;
49139;SDS011;34959;49.310;8.646;2023-07-20T13:29:32;2.08;;;1.20;;
49139;SDS011;34959;49.310;8.646;2023-07-20T13:32:01;1.55;;;1.00;;
49139;SDS011;34959;49.310;8.646;2023-07-20T13:34:29;1.35;;;0.95;;
49139;SDS011;34959;49.310;8.646;2023-07-20T13:36:54;2.00;;;1.27;;
49139;SDS011;34959;49.310;8.646;2023-07-20T13:39:20;1.50;;;0.90;;
49139;SDS011;34959;49.310;8.646;2023-07-20T13:41:49;3.50;;;1.13;;
49139;SDS011;34959;49.310;8.646;2023-07-20T13:44:14;2.85;;;1.00;;
49139;SDS011;34959;49.310;8.646;2023-07-20T13:46:40;1.80;;;1.13;;
49139;SDS011;34959;49.310;8.646;2023-07-20T13:49:05;1.83;;;1.08;;
49139;SDS011;34959;49.310;8.646;2023-07-20T13:51:31;2.38;;;1.00;;
49139;SDS011;34959;49.310;8.646;2023-07-20T13:53:57;1.52;;;1.00;;
49139;SDS011;34959;49.310;8.646;2023-07-20T13:56:23;1.88;;;1.08;;
49139;SDS011;34959;49.310;8.646;2023-07-20T13:58:49;1.90;;;1.08;;
49139;SDS011;34959;49.310;8.646;2023-07-20T14:01:15;1.20;;;0.85;;
49139;SDS011;34959;49.310;8.646;2023-07-20T14:03:42;2.03;;;1.00;;
49139;SDS011;34959;49.310;8.646;2023-07-20T14:06:14;1.27;;;1.00;;
49139;SDS011;34959;49.310;8.646;2023-07-20T14:08:43;1.45;;;0.90;;
49139;SDS011;34959;49.310;8.646;2023-07-20T14:11:12;2.00;;;1.07;;
49139;SDS011;34959;49.310;8.646;2023-07-20T14:13:38;2.70;;;0.80;;
49139;SDS011;34959;49.310;8.646;2023-07-20T14:16:03;1.75;;;0.90;;
49139;SDS011;34959;49.310;8.646;2023-07-20T14:18:29;1.75;;;1.00;;
49139;SDS011;34959;49.310;8.646;2023-07-20T14:20:54;1.98;;;1.02;;
49139;SDS011;34959;49.310;8.646;2023-07-20T14:23:20;1.95;;;1.00;;
49139;SDS011;34959;49.310;8.646;2023-07-20T14:25:45;2.20;;;1.05;;
49139;SDS011;34959;49.310;8.646;2023-07-20T14:28:14;2.03;;;1.00;;
49139;SDS011;34959;49.310;8.646;2023-07-20T14:30:39;2.15;;;1.10;;
49139;SDS011;34959;49.310;8.646;2023-07-20T14:33:05;1.10;;;0.85;;
49139;SDS011;34959;49.310;8.646;2023-07-20T14:35:31;1.08;;;0.88;;
49139;SDS011;34959;49.310;8.646;2023-07-20T14:37:57;2.75;;;0.98;;
49139;SDS011;34959;49.310;8.646;2023-07-20T14:40:22;3.95;;;1.00;;
49139;SDS011;34959;49.310;8.646;2023-07-20T14:42:51;1.70;;;0.88;;
49139;SDS011;34959;49.310;8.646;2023-07-20T14:45:17;1.95;;;0.85;;
49139;SDS011;34959;49.310;8.646;2023-07-20T14:47:45;1.48;;;1.15;;
49139;SDS011;34959;49.310;8.646;2023-07-20T14:50:10;1.35;;;0.93;;
49139;SDS011;34959;49.310;8.646;2023-07-20T14:52:38;1.38;;;0.80;;
49139;SDS011;34959;49.310;8.646;2023-07-20T14:55:04;2.00;;;1.00;;
49139;SDS011;34959;49.310;8.646;2023-07-20T14:57:30;2.30;;;0.70;;
49139;SDS011;34959;49.310;8.646;2023-07-20T14:59:55;2.78;;;1.10;;
49139;SDS011;34959;49.310;8.646;2023-07-20T15:02:23;2.45;;;1.10;;
49139;SDS011;34959;49.310;8.646;2023-07-20T15:04:50;1.80;;;1.02;;
49139;SDS011;34959;49.310;8.646;2023-07-20T15:07:16;1.13;;;0.77;;
49139;SDS011;34959;49.310;8.646;2023-07-20T15:09:43;1.20;;;0.90;;